createdAt,value
2024-03-13T00:00:05.704Z,3.45
2024-03-13T00:02:43.088Z,3.50
2024-03-13T00:05:13.967Z,3.50
2024-03-13T00:07:44.907Z,3.10
2024-03-13T00:10:15.907Z,3.38
2024-03-13T00:12:46.713Z,2.95
2024-03-13T00:15:19.792Z,3.17
2024-03-13T00:17:50.355Z,3.28
2024-03-13T00:20:20.987Z,3.60
2024-03-13T00:22:51.772Z,3.58
2024-03-13T00:25:22.250Z,3.22
2024-03-13T00:27:52.735Z,3.28
2024-03-13T00:30:26.697Z,3.20
2024-03-13T00:32:58.433Z,3.63
2024-03-13T00:35:28.904Z,2.90
2024-03-13T00:38:00.775Z,3.63
2024-03-13T00:40:31.503Z,3.38
2024-03-13T00:43:02.358Z,3.63
2024-03-13T00:45:35.471Z,3.50
2024-03-13T00:48:06.406Z,3.20
2024-03-13T00:50:37.067Z,3.20
2024-03-13T00:53:10.061Z,3.25
2024-03-13T00:55:40.516Z,3.13
2024-03-13T00:58:11.577Z,3.08
2024-03-13T01:00:44.802Z,3.25
2024-03-13T01:03:15.453Z,3.08
2024-03-13T01:05:46.020Z,3.13
2024-03-13T01:08:16.419Z,3.17
2024-03-13T01:10:47.474Z,3.30
2024-03-13T01:13:20.239Z,3.38
2024-03-13T01:15:53.692Z,3.08
2024-03-13T01:18:25.685Z,3.08
2024-03-13T01:20:56.765Z,2.85
2024-03-13T01:23:27.276Z,3.33
2024-03-13T01:26:01.008Z,3.08
2024-03-13T01:28:31.544Z,2.90
2024-03-13T01:31:07.461Z,3.38
2024-03-13T01:33:39.657Z,3.00
2024-03-13T01:36:10.688Z,3.17
2024-03-13T01:38:38.604Z,3.03
2024-03-13T01:41:21.558Z,2.90
2024-03-13T01:44:11.270Z,2.97
2024-03-13T01:46:56.808Z,2.50
2024-03-13T01:49:39.813Z,2.83
2024-03-13T01:52:24.701Z,3.47
2024-03-13T01:55:11.176Z,2.50
2024-03-13T01:58:03.928Z,3.20
2024-03-13T02:00:47.069Z,2.85
2024-03-13T02:03:22.672Z,3.08
2024-03-13T02:05:54.718Z,3.05
2024-03-13T02:08:25.586Z,2.60
2024-03-13T02:10:59.352Z,2.58
2024-03-13T02:13:30.236Z,3.20
2024-03-13T02:16:00.767Z,2.90
2024-03-13T02:18:34.684Z,2.70
2024-03-13T02:21:05.213Z,2.90
2024-03-13T02:23:40.507Z,2.42
2024-03-13T02:26:10.984Z,3.13
2024-03-13T02:28:42.080Z,2.92
2024-03-13T02:31:13.067Z,2.60
2024-03-13T02:33:44.992Z,2.92
2024-03-13T02:36:15.446Z,2.95
2024-03-13T02:38:50.928Z,2.70
2024-03-13T02:41:21.404Z,3.08
2024-03-13T02:43:51.856Z,2.47
2024-03-13T02:46:22.407Z,3.10
2024-03-13T02:48:53.254Z,2.67
2024-03-13T02:51:24.055Z,2.88
2024-03-13T02:53:57.415Z,3.08
2024-03-13T02:56:28.004Z,2.85
2024-03-13T02:58:58.537Z,3.13
2024-03-13T03:01:29.051Z,3.03
2024-03-13T03:04:00.669Z,2.42
2024-03-13T03:06:31.244Z,2.90
2024-03-13T03:09:05.303Z,2.97
2024-03-13T03:11:35.858Z,2.80
2024-03-13T03:14:06.489Z,2.53
2024-03-13T03:16:37.295Z,3.17
2024-03-13T03:19:07.938Z,2.75
2024-03-13T03:21:39.248Z,2.92
2024-03-13T03:24:12.292Z,2.42
2024-03-13T03:26:42.934Z,2.70
2024-03-13T03:29:13.373Z,2.72
2024-03-13T03:31:44.252Z,2.60
2024-03-13T03:34:14.763Z,2.65
2024-03-13T03:36:45.487Z,2.60
2024-03-13T03:39:19.275Z,2.97
2024-03-13T03:41:50.279Z,2.67
2024-03-13T03:44:20.723Z,2.55
2024-03-13T03:46:51.428Z,2.55
2024-03-13T03:49:24.126Z,2.35
2024-03-13T03:51:54.822Z,2.92
2024-03-13T03:54:27.862Z,2.30
2024-03-13T03:56:58.335Z,2.40
2024-03-13T03:59:28.766Z,2.47
2024-03-13T04:01:59.579Z,2.72
2024-03-13T04:04:30.173Z,2.63
2024-03-13T04:07:01.006Z,2.70
2024-03-13T04:09:35.285Z,2.50
2024-03-13T04:12:05.885Z,2.40
2024-03-13T04:14:36.505Z,2.60
2024-03-13T04:17:07.808Z,2.90
2024-03-13T04:19:39.044Z,2.22
2024-03-13T04:22:10.355Z,3.22
2024-03-13T04:24:44.790Z,2.47
2024-03-13T04:27:15.409Z,2.35
2024-03-13T04:29:48.557Z,2.75
2024-03-13T04:32:22.479Z,2.92
2024-03-13T04:34:53.274Z,2.25
2024-03-13T04:37:24.748Z,2.50
2024-03-13T04:40:01.123Z,2.33
2024-03-13T04:42:32.260Z,2.50
2024-03-13T04:45:02.787Z,2.20
2024-03-13T04:47:38.478Z,2.58
2024-03-13T04:50:13.184Z,2.50
2024-03-13T04:52:43.726Z,2.38
2024-03-13T04:55:17.063Z,2.47
2024-03-13T04:57:47.709Z,2.42
2024-03-13T05:00:18.847Z,2.25
2024-03-13T05:02:49.328Z,2.38
2024-03-13T05:05:19.953Z,2.10
2024-03-13T05:07:52.450Z,2.47
2024-03-13T05:10:30.809Z,2.30
2024-03-13T05:13:02.525Z,2.25
2024-03-13T05:15:33.110Z,2.60
2024-03-13T05:18:03.713Z,2.58
2024-03-13T05:20:34.319Z,2.45
2024-03-13T05:23:07.850Z,2.40
2024-03-13T05:25:41.033Z,2.20
2024-03-13T05:28:11.777Z,2.38
2024-03-13T05:30:42.305Z,2.08
2024-03-13T05:33:13.885Z,2.33
2024-03-13T05:35:44.494Z,2.72
2024-03-13T05:38:14.930Z,2.10
2024-03-13T05:40:48.513Z,2.58
2024-03-13T05:43:21.439Z,2.50
2024-03-13T05:45:52.014Z,2.60
2024-03-13T05:48:23.356Z,2.10
2024-03-13T05:50:55.193Z,2.15
2024-03-13T05:53:25.778Z,2.47
2024-03-13T05:55:58.938Z,2.33
2024-03-13T05:58:29.564Z,2.50
2024-03-13T06:01:03.252Z,2.20
2024-03-13T06:03:34.185Z,2.65
2024-03-13T06:06:04.841Z,2.05
2024-03-13T06:08:35.836Z,2.33
2024-03-13T06:11:09.087Z,2.95
2024-03-13T06:13:39.654Z,2.50
2024-03-13T06:16:10.997Z,2.30
2024-03-13T06:18:41.903Z,2.78
2024-03-13T06:21:12.656Z,2.63
2024-03-13T06:23:49.644Z,2.63
2024-03-13T06:26:23.237Z,2.58
2024-03-13T06:29:06.232Z,2.85
2024-03-13T06:31:37.357Z,2.83
2024-03-13T06:34:10.207Z,2.60
2024-03-13T06:36:40.900Z,2.72
2024-03-13T06:39:11.418Z,2.88
2024-03-13T06:41:44.466Z,2.97
2024-03-13T06:44:14.903Z,3.20
2024-03-13T06:46:46.419Z,2.78
2024-03-13T06:49:18.126Z,3.55
2024-03-13T06:51:49.000Z,2.90
2024-03-13T06:54:19.584Z,2.75
2024-03-13T06:56:52.641Z,3.72
2024-03-13T06:59:24.763Z,2.80
2024-03-13T07:01:57.721Z,2.40
2024-03-13T07:04:28.441Z,3.60
2024-03-13T07:07:00.897Z,3.13
2024-03-13T07:09:31.360Z,2.25
2024-03-13T07:12:05.522Z,3.17
2024-03-13T07:14:36.022Z,2.90
2024-03-13T07:17:08.300Z,2.90
2024-03-13T07:19:39.347Z,2.90
2024-03-13T07:22:11.043Z,3.33
2024-03-13T07:24:41.541Z,2.70
2024-03-13T07:27:14.591Z,3.05
2024-03-13T07:29:45.031Z,3.40
2024-03-13T07:32:17.554Z,2.55
2024-03-13T07:34:48.727Z,3.83
2024-03-13T07:37:19.268Z,3.47
2024-03-13T07:39:49.933Z,3.30
2024-03-13T07:42:23.023Z,3.40
2024-03-13T07:44:56.027Z,2.83
2024-03-13T07:47:26.769Z,3.25
2024-03-13T07:49:57.288Z,3.03
2024-03-13T07:52:29.802Z,3.67
2024-03-13T07:55:00.397Z,2.80
2024-03-13T07:57:33.575Z,3.15
2024-03-13T08:00:04.116Z,2.63
2024-03-13T08:02:43.658Z,3.05
2024-03-13T08:05:14.596Z,2.95
2024-03-13T09:05:54.165Z,3.17
2024-03-13T09:08:40.333Z,3.10
2024-03-13T09:11:18.495Z,2.78
2024-03-13T09:13:49.638Z,2.42
2024-03-13T09:16:20.066Z,3.15
2024-03-13T09:18:53.272Z,2.58
2024-03-13T09:21:23.890Z,2.88
2024-03-13T09:23:55.060Z,3.10
2024-03-13T09:26:25.728Z,2.83
2024-03-13T09:28:57.396Z,2.88
2024-03-13T09:31:28.198Z,2.60
2024-03-13T09:34:01.893Z,3.30
2024-03-13T09:36:32.930Z,2.70
2024-03-13T09:39:05.049Z,2.60
2024-03-13T09:41:35.735Z,2.95
2024-03-13T09:44:07.274Z,3.55
2024-03-13T09:46:38.000Z,2.78
2024-03-13T09:49:11.714Z,3.40
2024-03-13T09:51:44.984Z,3.05
2024-03-13T09:54:16.772Z,3.25
2024-03-13T09:56:48.229Z,2.75
2024-03-13T09:59:18.999Z,3.17
2024-03-13T10:01:52.015Z,2.97
2024-03-13T10:04:26.272Z,3.00
2024-03-13T10:06:58.493Z,2.80
2024-03-13T10:09:30.135Z,3.13
2024-03-13T10:12:04.504Z,3.38
2024-03-13T10:14:36.762Z,2.42
2024-03-13T10:17:09.280Z,3.13
2024-03-13T10:19:44.735Z,2.63
2024-03-13T10:22:16.222Z,2.90
2024-03-13T10:24:47.626Z,3.28
2024-03-13T10:27:18.921Z,2.80
2024-03-13T10:29:50.093Z,3.03
2024-03-13T10:32:22.149Z,3.08
2024-03-13T10:34:55.935Z,2.92
2024-03-13T10:37:28.155Z,2.55
2024-03-13T10:40:01.664Z,2.80
2024-03-13T10:42:33.060Z,3.20
2024-03-13T10:45:06.214Z,2.95
2024-03-13T10:47:36.901Z,3.10
2024-03-13T10:50:11.178Z,3.33
2024-03-13T10:52:42.422Z,2.78
2024-03-13T10:55:13.807Z,3.10
2024-03-13T10:57:46.554Z,3.47
2024-03-13T11:00:22.832Z,3.13
2024-03-13T11:02:53.756Z,2.83
2024-03-13T11:05:27.167Z,2.90
2024-03-13T11:07:59.927Z,3.47
2024-03-13T11:10:31.301Z,2.92
2024-03-13T11:13:03.847Z,3.30
2024-03-13T11:15:34.907Z,2.72
2024-03-13T11:18:06.146Z,2.92
2024-03-13T11:20:41.205Z,3.60
2024-03-13T11:23:19.361Z,3.08
2024-03-13T11:25:51.444Z,3.47
2024-03-13T11:28:24.475Z,3.50
2024-03-13T11:30:55.839Z,3.78
2024-03-13T11:33:26.767Z,3.15
2024-03-13T11:36:02.340Z,3.08
2024-03-13T11:38:36.059Z,3.00
2024-03-13T11:41:07.051Z,3.53
2024-03-13T11:43:37.757Z,3.03
2024-03-13T11:46:14.173Z,3.47
2024-03-13T11:48:45.715Z,3.13
2024-03-13T11:51:18.882Z,3.35
2024-03-13T11:53:49.490Z,3.22
2024-03-13T11:56:26.127Z,3.38
2024-03-13T11:58:56.741Z,3.60
2024-03-13T12:01:27.812Z,3.72
2024-03-13T12:03:58.649Z,3.55
2024-03-13T12:06:45.716Z,4.13
2024-03-13T12:09:20.343Z,3.33
2024-03-13T12:11:55.540Z,3.13
2024-03-13T12:14:26.554Z,3.10
2024-03-13T12:16:57.062Z,3.22
2024-03-13T12:19:30.884Z,3.47
2024-03-13T12:22:06.842Z,3.25
2024-03-13T12:24:38.700Z,3.38
2024-03-13T12:27:11.088Z,4.15
2024-03-13T12:29:42.018Z,3.35
2024-03-13T12:32:14.720Z,3.40
2024-03-13T12:34:45.741Z,3.72
2024-03-13T12:37:21.997Z,3.33
2024-03-13T12:39:52.716Z,3.33
2024-03-13T12:42:25.088Z,3.50
2024-03-13T12:44:57.221Z,3.40
2024-03-13T12:47:28.078Z,3.38
2024-03-13T12:49:59.141Z,3.30
2024-03-13T12:52:36.815Z,3.88
2024-03-13T12:55:09.314Z,3.08
2024-03-13T12:57:40.721Z,3.40
2024-03-13T13:00:21.043Z,3.17
2024-03-13T13:02:55.171Z,3.55
2024-03-13T13:05:26.153Z,3.60
2024-03-13T13:08:00.524Z,3.28
2024-03-13T13:10:31.403Z,2.92
2024-03-13T13:13:01.922Z,3.20
2024-03-13T13:15:32.425Z,3.65
2024-03-13T13:18:03.236Z,3.45
2024-03-13T13:20:34.975Z,3.47
2024-03-13T13:23:08.602Z,3.30
2024-03-13T13:25:39.119Z,3.47
2024-03-13T13:28:14.226Z,2.97
2024-03-13T13:30:47.977Z,2.72
2024-03-13T13:33:18.794Z,2.97
2024-03-13T13:35:49.345Z,3.10
2024-03-13T13:38:25.410Z,3.67
2024-03-13T13:40:55.927Z,2.70
2024-03-13T13:43:26.737Z,3.20
2024-03-13T13:45:57.308Z,3.13
2024-03-13T13:48:29.650Z,3.60
2024-03-13T13:51:00.537Z,2.88
2024-03-13T13:53:34.527Z,3.15
2024-03-13T13:56:06.026Z,3.03
2024-03-13T13:58:36.708Z,3.47
2024-03-13T14:01:07.342Z,3.13
2024-03-13T14:03:38.912Z,3.03
2024-03-13T14:06:10.600Z,2.80
2024-03-13T14:08:43.949Z,3.30
2024-03-13T14:11:15.619Z,2.80
2024-03-13T14:13:46.865Z,2.70
2024-03-13T14:16:17.366Z,2.88
2024-03-13T14:18:47.903Z,2.97
2024-03-13T14:21:22.704Z,2.83
2024-03-13T14:23:56.049Z,2.75
2024-03-13T14:26:26.933Z,2.83
2024-03-13T14:28:57.360Z,2.63
2024-03-13T14:31:28.107Z,2.40
2024-03-13T14:33:58.726Z,2.83
2024-03-13T14:36:29.665Z,3.13
2024-03-13T14:39:04.739Z,2.70
2024-03-13T14:41:35.241Z,2.92
2024-03-13T14:44:05.787Z,2.70
2024-03-13T14:46:36.713Z,3.22
2024-03-13T14:49:07.590Z,2.85
2024-03-13T14:51:38.119Z,3.03
2024-03-13T14:54:11.357Z,3.05
2024-03-13T14:56:41.883Z,2.40
2024-03-13T14:59:15.753Z,3.00
2024-03-13T15:01:46.289Z,2.72
2024-03-13T15:04:16.840Z,2.80
2024-03-13T15:06:47.252Z,2.92
2024-03-13T15:09:20.866Z,2.50
2024-03-13T15:11:52.088Z,2.97
2024-03-13T15:14:23.027Z,3.10
2024-03-13T15:16:54.331Z,3.10
2024-03-13T15:19:25.092Z,3.03
2024-03-13T15:21:56.345Z,2.55
2024-03-13T15:24:29.679Z,2.83
2024-03-13T15:27:00.239Z,3.25
2024-03-13T15:29:30.839Z,3.13
2024-03-13T15:32:01.251Z,2.88
2024-03-13T15:34:32.321Z,2.40
2024-03-13T15:37:02.884Z,2.80
2024-03-13T15:39:36.106Z,2.88
2024-03-13T15:42:06.672Z,2.67
2024-03-13T15:44:37.752Z,2.60
2024-03-13T15:47:08.321Z,2.60
2024-03-13T15:49:38.763Z,3.17
2024-03-13T15:52:09.637Z,2.80
2024-03-13T15:54:43.065Z,3.08
2024-03-13T15:57:13.704Z,3.10
2024-03-13T15:59:44.642Z,2.80
2024-03-13T16:02:16.277Z,3.42
2024-03-13T16:04:46.795Z,2.83
2024-03-13T16:07:17.670Z,2.83
2024-03-13T16:09:50.728Z,2.60
2024-03-13T16:12:21.584Z,3.42
2024-03-13T16:14:52.102Z,2.78
2024-03-13T16:17:22.999Z,2.65
2024-03-13T16:19:53.461Z,3.28
2024-03-13T16:22:25.614Z,3.22
2024-03-13T16:24:58.695Z,2.97
2024-03-13T16:27:29.651Z,3.63
2024-03-13T16:30:00.300Z,3.20
2024-03-13T16:32:31.529Z,3.38
2024-03-13T16:35:02.018Z,3.72
2024-03-13T16:37:32.575Z,3.13
2024-03-13T16:40:06.143Z,3.75
2024-03-13T16:42:36.900Z,3.38
2024-03-13T16:45:07.961Z,3.30
2024-03-13T16:47:41.239Z,4.10
2024-03-13T16:50:16.671Z,3.28
2024-03-13T16:52:47.928Z,3.70
2024-03-13T16:55:21.021Z,3.50
2024-03-13T16:57:51.780Z,3.67
2024-03-13T17:00:25.252Z,3.30
2024-03-13T17:02:57.065Z,4.00
2024-03-13T17:05:27.707Z,3.88
2024-03-13T17:07:58.641Z,4.00
2024-03-13T17:10:32.097Z,3.15
2024-03-13T17:13:04.472Z,3.63
2024-03-13T17:15:35.214Z,4.28
2024-03-13T17:18:05.889Z,4.32
2024-03-13T17:20:37.327Z,4.85
2024-03-13T17:23:09.817Z,4.10
2024-03-13T17:25:44.082Z,3.70
2024-03-13T17:28:14.659Z,4.03
2024-03-13T17:30:45.673Z,3.58
2024-03-13T17:33:16.202Z,4.28
2024-03-13T17:35:47.970Z,4.07
2024-03-13T17:38:18.737Z,4.60
2024-03-13T17:40:51.757Z,3.92
2024-03-13T17:43:22.256Z,3.92
2024-03-13T17:45:53.161Z,4.22
2024-03-13T17:48:23.683Z,4.55
2024-03-13T17:50:54.787Z,4.57
2024-03-13T17:53:25.399Z,3.83
2024-03-13T17:55:58.782Z,3.83
2024-03-13T17:58:29.358Z,4.03
2024-03-13T18:01:00.877Z,4.38
2024-03-13T18:03:32.150Z,4.30
2024-03-13T18:06:03.881Z,3.90
2024-03-13T18:08:35.016Z,5.18
2024-03-13T18:11:08.708Z,3.80
2024-03-13T18:13:44.416Z,4.07
2024-03-13T18:16:17.587Z,3.83
2024-03-13T18:18:48.301Z,4.13
2024-03-13T18:21:19.542Z,3.65
2024-03-13T18:23:50.741Z,4.15
2024-03-13T18:26:23.999Z,4.28
2024-03-13T18:28:55.408Z,4.13
2024-03-13T18:31:25.925Z,4.07
2024-03-13T18:33:57.029Z,3.60
2024-03-13T18:36:28.467Z,4.32
2024-03-13T18:38:59.314Z,3.90
2024-03-13T18:41:32.487Z,3.65
2024-03-13T18:44:02.928Z,3.55
2024-03-13T18:46:33.383Z,4.20
2024-03-13T18:49:04.057Z,4.00
2024-03-13T18:51:34.749Z,3.85
2024-03-13T18:54:07.046Z,3.42
2024-03-13T18:56:40.280Z,4.40
2024-03-13T18:59:14.798Z,3.63
2024-03-13T19:01:45.361Z,3.47
2024-03-13T19:04:15.931Z,4.40
2024-03-13T19:06:46.513Z,4.15
2024-03-13T19:09:21.074Z,4.07
2024-03-13T19:11:54.396Z,3.55
2024-03-13T19:14:24.940Z,4.07
2024-03-13T19:16:55.560Z,3.60
2024-03-13T19:19:26.039Z,3.78
2024-03-13T19:21:58.459Z,3.55
2024-03-13T19:24:29.843Z,3.55
2024-03-13T19:27:04.184Z,3.83
2024-03-13T19:29:35.216Z,3.50
2024-03-13T19:32:05.722Z,3.42
2024-03-13T19:34:38.288Z,3.72
2024-03-13T19:37:09.388Z,4.05
2024-03-13T19:39:39.964Z,3.65
2024-03-13T19:42:13.080Z,4.40
2024-03-13T19:44:43.870Z,3.47
2024-03-13T19:47:14.673Z,3.55
2024-03-13T19:49:45.245Z,3.67
2024-03-13T19:52:15.766Z,3.42
2024-03-13T19:54:46.212Z,3.13
2024-03-13T19:57:19.473Z,3.70
2024-03-13T19:59:50.087Z,3.60
2024-03-13T20:02:22.939Z,3.60
2024-03-13T20:04:53.604Z,4.22
2024-03-13T20:07:24.104Z,3.33
2024-03-13T20:09:55.994Z,3.83
2024-03-13T20:12:29.211Z,3.63
2024-03-13T20:15:00.250Z,3.42
2024-03-13T20:17:31.068Z,3.63
2024-03-13T20:20:02.528Z,3.83
2024-03-13T20:22:34.815Z,3.65
2024-03-13T20:25:05.422Z,3.97
2024-03-13T20:27:39.607Z,4.00
2024-03-13T20:30:11.731Z,3.72
2024-03-13T20:32:42.629Z,3.58
2024-03-13T20:35:13.606Z,3.40
2024-03-13T20:37:45.021Z,3.67
2024-03-13T20:40:16.268Z,3.08
2024-03-13T20:42:50.032Z,3.35
2024-03-13T20:45:21.314Z,3.53
2024-03-13T20:47:52.035Z,3.78
2024-03-13T20:50:23.359Z,3.83
2024-03-13T20:52:53.968Z,3.35
2024-03-13T20:55:24.644Z,3.95
2024-03-13T20:57:58.541Z,3.80
2024-03-13T21:00:31.792Z,3.30
2024-03-13T21:03:02.354Z,3.72
2024-03-13T21:05:33.028Z,3.60
2024-03-13T21:08:03.629Z,3.47
2024-03-13T21:10:35.112Z,4.68
2024-03-13T21:13:08.781Z,3.70
2024-03-13T21:15:46.107Z,3.20
2024-03-13T21:18:38.405Z,3.05
2024-03-13T21:21:09.213Z,3.72
2024-03-13T21:23:40.677Z,3.50
2024-03-13T21:26:11.187Z,3.92
2024-03-13T21:28:44.371Z,4.43
2024-03-13T21:31:14.798Z,3.55
2024-03-13T21:33:45.499Z,3.65
2024-03-13T21:36:16.157Z,3.53
2024-03-13T21:38:46.707Z,3.92
2024-03-13T21:41:18.476Z,3.17
2024-03-13T21:43:51.438Z,3.35
2024-03-13T21:46:24.285Z,3.30
2024-03-13T21:48:54.763Z,3.70
2024-03-13T21:51:25.725Z,4.43
2024-03-13T21:53:56.454Z,3.45
2024-03-13T21:56:28.161Z,3.53
2024-03-13T21:59:01.202Z,3.70
2024-03-13T22:01:31.762Z,3.70
2024-03-13T22:04:02.458Z,3.60
2024-03-13T22:06:32.981Z,3.35
2024-03-13T22:09:04.848Z,3.40
2024-03-13T22:11:35.406Z,3.83
2024-03-13T22:14:08.627Z,3.70
2024-03-13T22:16:39.296Z,3.58
2024-03-13T22:19:09.700Z,3.67
2024-03-13T22:21:40.402Z,3.75
2024-03-13T22:24:11.286Z,3.58
2024-03-13T22:26:41.961Z,3.22
2024-03-13T22:29:15.046Z,3.63
2024-03-13T22:31:45.665Z,3.33
2024-03-13T22:34:16.137Z,3.30
2024-03-13T22:36:46.919Z,3.65
2024-03-13T22:39:17.463Z,3.58
2024-03-13T22:41:48.826Z,3.17
2024-03-13T22:44:22.726Z,3.38
2024-03-13T22:46:53.198Z,3.50
2024-03-13T22:49:23.708Z,3.42
2024-03-13T22:51:55.033Z,4.13
2024-03-13T22:54:25.621Z,3.58
2024-03-13T22:56:56.333Z,3.30
2024-03-13T22:59:29.686Z,3.20
2024-03-13T23:02:01.574Z,3.47
2024-03-13T23:04:35.460Z,3.47
2024-03-13T23:07:06.471Z,3.42
2024-03-13T23:09:40.224Z,3.72
2024-03-13T23:12:11.226Z,3.28
2024-03-13T23:14:44.661Z,3.35
2024-03-13T23:17:15.146Z,3.83
2024-03-13T23:19:45.902Z,3.40
2024-03-13T23:22:16.350Z,3.40
2024-03-13T23:24:46.988Z,3.78
2024-03-13T23:27:17.724Z,3.47
2024-03-13T23:29:51.373Z,2.90
2024-03-13T23:32:22.039Z,3.25
2024-03-13T23:34:52.486Z,3.40
2024-03-13T23:37:22.967Z,3.05
2024-03-13T23:39:54.422Z,3.25
2024-03-13T23:42:25.238Z,2.85
2024-03-13T23:44:58.426Z,3.17
2024-03-13T23:47:28.939Z,3.00
2024-03-13T23:49:59.742Z,3.50
2024-03-13T23:52:30.171Z,3.15
2024-03-13T23:55:01.202Z,2.75
2024-03-13T23:57:31.934Z,3.40
